sensor_id;sensor_type;location;lat;lon;timestamp;temperature;humidity
22153;DHT22;11242;50.536;12.688;2023-04-25T00:00:35;4.80;99.90
22153;DHT22;11242;50.536;12.688;2023-04-25T00:03:01;4.80;99.90
22153;DHT22;11242;50.536;12.688;2023-04-25T00:05:26;4.80;99.90
22153;DHT22;11242;50.536;12.688;2023-04-25T00:07:52;4.70;99.90
22153;DHT22;11242;50.536;12.688;2023-04-25T00:10:19;4.80;99.90
22153;DHT22;11242;50.536;12.688;2023-04-25T00:12:45;4.80;99.90
22153;DHT22;11242;50.536;12.688;2023-04-25T00:15:12;4.90;99.90
22153;DHT22;11242;50.536;12.688;2023-04-25T00:17:37;4.90;99.90
22153;DHT22;11242;50.536;12.688;2023-04-25T00:20:07;5.00;99.90
22153;DHT22;11242;50.536;12.688;2023-04-25T00:22:35;5.00;99.90
22153;DHT22;11242;50.536;12.688;2023-04-25T00:25:05;5.10;99.90
22153;DHT22;11242;50.536;12.688;2023-04-25T00:27:31;5.10;99.90
22153;DHT22;11242;50.536;12.688;2023-04-25T00:29:57;5.20;99.90
22153;DHT22;11242;50.536;12.688;2023-04-25T00:32:23;5.30;99.90
22153;DHT22;11242;50.536;12.688;2023-04-25T00:34:48;5.30;99.90
22153;DHT22;11242;50.536;12.688;2023-04-25T00:37:14;5.40;99.90
22153;DHT22;11242;50.536;12.688;2023-04-25T00:39:39;5.50;99.90
22153;DHT22;11242;50.536;12.688;2023-04-25T00:42:05;5.60;99.90
22153;DHT22;11242;50.536;12.688;2023-04-25T00:44:32;5.60;99.90
22153;DHT22;11242;50.536;12.688;2023-04-25T00:46:59;5.70;99.90
22153;DHT22;11242;50.536;12.688;2023-04-25T00:49:25;5.70;99.90
22153;DHT22;11242;50.536;12.688;2023-04-25T00:51:51;5.80;99.90
22153;DHT22;11242;50.536;12.688;2023-04-25T00:54:16;5.90;99.90
22153;DHT22;11242;50.536;12.688;2023-04-25T00:56:42;5.90;99.90
22153;DHT22;11242;50.536;12.688;2023-04-25T00:59:10;5.90;99.90
22153;DHT22;11242;50.536;12.688;2023-04-25T01:01:39;6.00;99.90
22153;DHT22;11242;50.536;12.688;2023-04-25T01:04:04;6.00;99.90
22153;DHT22;11242;50.536;12.688;2023-04-25T01:06:31;6.10;99.90
22153;DHT22;11242;50.536;12.688;2023-04-25T01:08:57;6.10;99.90
22153;DHT22;11242;50.536;12.688;2023-04-25T01:11:23;6.20;99.90
22153;DHT22;11242;50.536;12.688;2023-04-25T01:13:49;6.20;99.90
22153;DHT22;11242;50.536;12.688;2023-04-25T01:16:15;6.20;99.90
22153;DHT22;11242;50.536;12.688;2023-04-25T01:18:41;6.30;99.90
22153;DHT22;11242;50.536;12.688;2023-04-25T01:21:11;6.30;99.90
22153;DHT22;11242;50.536;12.688;2023-04-25T01:23:40;6.30;99.90
22153;DHT22;11242;50.536;12.688;2023-04-25T01:26:07;6.30;99.90
22153;DHT22;11242;50.536;12.688;2023-04-25T01:28:34;6.30;99.90
22153;DHT22;11242;50.536;12.688;2023-04-25T01:31:00;6.30;99.90
22153;DHT22;11242;50.536;12.688;2023-04-25T01:33:26;6.30;99.90
22153;DHT22;11242;50.536;12.688;2023-04-25T01:35:52;6.40;99.90
22153;DHT22;11242;50.536;12.688;2023-04-25T01:38:19;6.40;99.90
22153;DHT22;11242;50.536;12.688;2023-04-25T01:40:45;6.40;99.90
22153;DHT22;11242;50.536;12.688;2023-04-25T01:43:12;6.50;99.90
22153;DHT22;11242;50.536;12.688;2023-04-25T01:45:40;6.50;99.90
22153;DHT22;11242;50.536;12.688;2023-04-25T01:48:08;6.50;99.90
22153;DHT22;11242;50.536;12.688;2023-04-25T01:50:35;6.50;99.90
22153;DHT22;11242;50.536;12.688;2023-04-25T01:53:01;6.50;99.90
22153;DHT22;11242;50.536;12.688;2023-04-25T01:55:27;6.50;99.90
22153;DHT22;11242;50.536;12.688;2023-04-25T01:58:04;6.50;99.90
22153;DHT22;11242;50.536;12.688;2023-04-25T02:00:54;6.50;99.90
22153;DHT22;11242;50.536;12.688;2023-04-25T02:03:20;6.50;99.90
22153;DHT22;11242;50.536;12.688;2023-04-25T02:05:46;6.60;99.90
22153;DHT22;11242;50.536;12.688;2023-04-25T02:08:13;6.50;99.90
22153;DHT22;11242;50.536;12.688;2023-04-25T02:10:39;6.60;99.90
22153;DHT22;11242;50.536;12.688;2023-04-25T02:13:12;6.60;99.90
22153;DHT22;11242;50.536;12.688;2023-04-25T02:16:13;6.60;99.90
22153;DHT22;11242;50.536;12.688;2023-04-25T02:18:39;6.60;99.90
22153;DHT22;11242;50.536;12.688;2023-04-25T02:21:05;6.60;99.90
22153;DHT22;11242;50.536;12.688;2023-04-25T02:23:31;6.60;99.90
22153;DHT22;11242;50.536;12.688;2023-04-25T02:25:59;6.60;99.90
22153;DHT22;11242;50.536;12.688;2023-04-25T02:28:24;6.60;99.90
22153;DHT22;11242;50.536;12.688;2023-04-25T02:30:51;6.60;99.90
22153;DHT22;11242;50.536;12.688;2023-04-25T02:33:17;6.60;99.90
22153;DHT22;11242;50.536;12.688;2023-04-25T02:35:43;6.60;99.90
22153;DHT22;11242;50.536;12.688;2023-04-25T02:38:08;6.60;99.90
22153;DHT22;11242;50.536;12.688;2023-04-25T02:40:34;6.60;99.90
22153;DHT22;11242;50.536;12.688;2023-04-25T02:42:59;6.60;99.90
22153;DHT22;11242;50.536;12.688;2023-04-25T02:45:25;6.60;99.90
22153;DHT22;11242;50.536;12.688;2023-04-25T02:47:51;6.60;99.90
22153;DHT22;11242;50.536;12.688;2023-04-25T02:50:18;6.60;99.90
22153;DHT22;11242;50.536;12.688;2023-04-25T02:52:44;6.60;99.90
22153;DHT22;11242;50.536;12.688;2023-04-25T02:55:14;6.50;99.90
22153;DHT22;11242;50.536;12.688;2023-04-25T02:57:41;6.50;99.90
22153;DHT22;11242;50.536;12.688;2023-04-25T03:00:10;6.50;99.90
22153;DHT22;11242;50.536;12.688;2023-04-25T03:02:37;6.40;99.90
22153;DHT22;11242;50.536;12.688;2023-04-25T03:05:02;6.40;99.90
22153;DHT22;11242;50.536;12.688;2023-04-25T03:07:28;6.40;99.90
22153;DHT22;11242;50.536;12.688;2023-04-25T03:09:54;6.40;99.90
22153;DHT22;11242;50.536;12.688;2023-04-25T03:12:22;6.40;99.90
22153;DHT22;11242;50.536;12.688;2023-04-25T03:14:48;6.50;99.90
22153;DHT22;11242;50.536;12.688;2023-04-25T03:17:14;6.40;99.90
22153;DHT22;11242;50.536;12.688;2023-04-25T03:19:40;6.40;99.90
22153;DHT22;11242;50.536;12.688;2023-04-25T03:22:05;6.30;99.90
22153;DHT22;11242;50.536;12.688;2023-04-25T03:24:31;6.30;99.90
22153;DHT22;11242;50.536;12.688;2023-04-25T03:26:57;6.30;99.90
22153;DHT22;11242;50.536;12.688;2023-04-25T03:29:23;6.30;99.90
22153;DHT22;11242;50.536;12.688;2023-04-25T03:31:51;6.20;99.90
22153;DHT22;11242;50.536;12.688;2023-04-25T03:34:16;6.20;99.90
22153;DHT22;11242;50.536;12.688;2023-04-25T03:36:42;6.20;99.90
22153;DHT22;11242;50.536;12.688;2023-04-25T03:39:09;6.10;99.90
22153;DHT22;11242;50.536;12.688;2023-04-25T03:41:36;6.10;99.90
22153;DHT22;11242;50.536;12.688;2023-04-25T03:44:07;6.00;99.90
22153;DHT22;11242;50.536;12.688;2023-04-25T03:46:33;6.00;99.90
22153;DHT22;11242;50.536;12.688;2023-04-25T03:48:58;6.00;99.90
22153;DHT22;11242;50.536;12.688;2023-04-25T03:51:33;6.00;99.90
22153;DHT22;11242;50.536;12.688;2023-04-25T03:53:58;5.90;99.90
22153;DHT22;11242;50.536;12.688;2023-04-25T03:56:30;6.00;99.90
22153;DHT22;11242;50.536;12.688;2023-04-25T03:59:03;6.00;99.90
22153;DHT22;11242;50.536;12.688;2023-04-25T04:01:29;6.00;99.90
22153;DHT22;11242;50.536;12.688;2023-04-25T04:03:55;6.00;99.90
22153;DHT22;11242;50.536;12.688;2023-04-25T04:06:21;5.90;99.90
22153;DHT22;11242;50.536;12.688;2023-04-25T04:08:50;6.00;99.90
22153;DHT22;11242;50.536;12.688;2023-04-25T04:11:16;6.00;99.90
22153;DHT22;11242;50.536;12.688;2023-04-25T04:13:41;6.00;99.90
22153;DHT22;11242;50.536;12.688;2023-04-25T04:16:07;6.10;99.90
22153;DHT22;11242;50.536;12.688;2023-04-25T04:18:33;6.00;99.90
22153;DHT22;11242;50.536;12.688;2023-04-25T04:20:59;6.00;99.90
22153;DHT22;11242;50.536;12.688;2023-04-25T04:23:27;6.00;99.90
22153;DHT22;11242;50.536;12.688;2023-04-25T04:25:55;6.10;99.90
22153;DHT22;11242;50.536;12.688;2023-04-25T04:28:38;6.10;99.90
22153;DHT22;11242;50.536;12.688;2023-04-25T04:31:35;6.00;99.90
22153;DHT22;11242;50.536;12.688;2023-04-25T04:34:02;5.80;99.90
22153;DHT22;11242;50.536;12.688;2023-04-25T04:36:29;5.80;99.90
22153;DHT22;11242;50.536;12.688;2023-04-25T04:38:56;5.80;99.90
22153;DHT22;11242;50.536;12.688;2023-04-25T04:41:44;5.80;99.90
22153;DHT22;11242;50.536;12.688;2023-04-25T04:44:14;5.80;99.90
22153;DHT22;11242;50.536;12.688;2023-04-25T04:47:05;5.90;99.90
22153;DHT22;11242;50.536;12.688;2023-04-25T04:49:51;5.90;99.90
22153;DHT22;11242;50.536;12.688;2023-04-25T04:52:32;5.90;99.90
22153;DHT22;11242;50.536;12.688;2023-04-25T04:55:33;6.00;99.90
22153;DHT22;11242;50.536;12.688;2023-04-25T04:58:11;6.00;99.90
22153;DHT22;11242;50.536;12.688;2023-04-25T05:01:03;6.00;99.90
22153;DHT22;11242;50.536;12.688;2023-04-25T05:03:47;6.00;99.90
22153;DHT22;11242;50.536;12.688;2023-04-25T05:06:41;6.00;99.90
22153;DHT22;11242;50.536;12.688;2023-04-25T05:09:24;6.00;99.90
22153;DHT22;11242;50.536;12.688;2023-04-25T05:12:13;6.10;99.90
22153;DHT22;11242;50.536;12.688;2023-04-25T05:14:53;6.10;99.90
22153;DHT22;11242;50.536;12.688;2023-04-25T05:17:37;6.10;99.90
22153;DHT22;11242;50.536;12.688;2023-04-25T05:20:10;6.10;99.90
22153;DHT22;11242;50.536;12.688;2023-04-25T05:22:59;6.20;99.90
22153;DHT22;11242;50.536;12.688;2023-04-25T05:25:54;6.30;99.90
22153;DHT22;11242;50.536;12.688;2023-04-25T05:28:30;6.30;99.90
22153;DHT22;11242;50.536;12.688;2023-04-25T05:31:26;6.10;99.90
22153;DHT22;11242;50.536;12.688;2023-04-25T05:33:57;5.90;99.90
22153;DHT22;11242;50.536;12.688;2023-04-25T05:36:27;5.90;99.90
22153;DHT22;11242;50.536;12.688;2023-04-25T05:38:53;6.00;99.90
22153;DHT22;11242;50.536;12.688;2023-04-25T05:41:19;6.10;99.90
22153;DHT22;11242;50.536;12.688;2023-04-25T05:43:50;6.10;99.90
22153;DHT22;11242;50.536;12.688;2023-04-25T05:46:23;6.00;99.90
22153;DHT22;11242;50.536;12.688;2023-04-25T05:48:59;6.00;99.90
22153;DHT22;11242;50.536;12.688;2023-04-25T05:51:36;5.90;99.90
22153;DHT22;11242;50.536;12.688;2023-04-25T05:54:19;5.90;99.90
22153;DHT22;11242;50.536;12.688;2023-04-25T05:56:45;5.80;99.90
22153;DHT22;11242;50.536;12.688;2023-04-25T05:59:11;5.70;99.90
22153;DHT22;11242;50.536;12.688;2023-04-25T06:01:36;5.80;99.90
22153;DHT22;11242;50.536;12.688;2023-04-25T06:04:02;5.80;99.90
22153;DHT22;11242;50.536;12.688;2023-04-25T06:06:28;5.70;99.90
22153;DHT22;11242;50.536;12.688;2023-04-25T06:08:53;5.60;99.90
22153;DHT22;11242;50.536;12.688;2023-04-25T06:11:20;5.40;99.90
22153;DHT22;11242;50.536;12.688;2023-04-25T06:13:45;5.20;99.90
22153;DHT22;11242;50.536;12.688;2023-04-25T06:16:11;5.10;99.90
22153;DHT22;11242;50.536;12.688;2023-04-25T06:18:37;5.10;99.90
22153;DHT22;11242;50.536;12.688;2023-04-25T06:21:03;5.20;99.90
22153;DHT22;11242;50.536;12.688;2023-04-25T06:23:28;5.30;99.90
22153;DHT22;11242;50.536;12.688;2023-04-25T06:26:03;5.30;99.90
22153;DHT22;11242;50.536;12.688;2023-04-25T06:28:30;5.20;99.90
22153;DHT22;11242;50.536;12.688;2023-04-25T06:30:56;5.20;99.90
22153;DHT22;11242;50.536;12.688;2023-04-25T06:33:21;5.00;99.90
22153;DHT22;11242;50.536;12.688;2023-04-25T06:35:48;4.90;99.90
22153;DHT22;11242;50.536;12.688;2023-04-25T06:38:16;4.80;99.90
22153;DHT22;11242;50.536;12.688;2023-04-25T06:40:46;4.80;99.90
22153;DHT22;11242;50.536;12.688;2023-04-25T06:43:12;4.80;99.90
22153;DHT22;11242;50.536;12.688;2023-04-25T06:46:02;4.80;99.90
22153;DHT22;11242;50.536;12.688;2023-04-25T06:48:30;4.60;99.90
22153;DHT22;11242;50.536;12.688;2023-04-25T06:50:57;4.30;99.90
22153;DHT22;11242;50.536;12.688;2023-04-25T06:53:24;4.20;99.90
22153;DHT22;11242;50.536;12.688;2023-04-25T06:55:55;4.20;99.90
22153;DHT22;11242;50.536;12.688;2023-04-25T06:58:22;4.20;99.90
22153;DHT22;11242;50.536;12.688;2023-04-25T07:01:09;4.20;99.90
22153;DHT22;11242;50.536;12.688;2023-04-25T07:03:35;4.20;99.90
22153;DHT22;11242;50.536;12.688;2023-04-25T07:06:07;4.20;99.90
22153;DHT22;11242;50.536;12.688;2023-04-25T07:08:33;4.30;99.90
22153;DHT22;11242;50.536;12.688;2023-04-25T07:10:59;4.30;99.90
22153;DHT22;11242;50.536;12.688;2023-04-25T07:13:24;4.40;99.90
22153;DHT22;11242;50.536;12.688;2023-04-25T07:15:50;4.40;99.90
22153;DHT22;11242;50.536;12.688;2023-04-25T07:18:18;4.70;99.90
22153;DHT22;11242;50.536;12.688;2023-04-25T07:20:44;4.90;99.90
22153;DHT22;11242;50.536;12.688;2023-04-25T07:23:10;5.10;99.90
22153;DHT22;11242;50.536;12.688;2023-04-25T07:25:35;5.10;99.90
22153;DHT22;11242;50.536;12.688;2023-04-25T07:28:01;5.20;99.90
22153;DHT22;11242;50.536;12.688;2023-04-25T07:30:27;5.30;99.90
22153;DHT22;11242;50.536;12.688;2023-04-25T07:32:53;5.50;99.90
22153;DHT22;11242;50.536;12.688;2023-04-25T07:35:19;5.70;99.90
22153;DHT22;11242;50.536;12.688;2023-04-25T07:37:44;6.00;99.90
22153;DHT22;11242;50.536;12.688;2023-04-25T07:40:14;6.40;99.90
22153;DHT22;11242;50.536;12.688;2023-04-25T07:42:45;6.90;99.90
22153;DHT22;11242;50.536;12.688;2023-04-25T07:45:13;7.20;99.90
22153;DHT22;11242;50.536;12.688;2023-04-25T07:47:39;7.90;99.90
22153;DHT22;11242;50.536;12.688;2023-04-25T07:50:06;9.90;99.90
22153;DHT22;11242;50.536;12.688;2023-04-25T07:52:32;11.90;99.90
22153;DHT22;11242;50.536;12.688;2023-04-25T07:55:08;14.70;99.90
22153;DHT22;11242;50.536;12.688;2023-04-25T07:57:48;15.60;99.90
22153;DHT22;11242;50.536;12.688;2023-04-25T08:00:14;14.40;99.90
22153;DHT22;11242;50.536;12.688;2023-04-25T08:02:41;15.00;99.90
22153;DHT22;11242;50.536;12.688;2023-04-25T08:05:12;14.80;99.90
22153;DHT22;11242;50.536;12.688;2023-04-25T08:07:42;14.80;99.90
22153;DHT22;11242;50.536;12.688;2023-04-25T08:10:09;14.00;98.80
22153;DHT22;11242;50.536;12.688;2023-04-25T08:12:34;12.40;99.90
22153;DHT22;11242;50.536;12.688;2023-04-25T08:15:00;12.00;99.90
22153;DHT22;11242;50.536;12.688;2023-04-25T08:17:31;12.30;99.90
22153;DHT22;11242;50.536;12.688;2023-04-25T08:19:57;12.50;99.90
22153;DHT22;11242;50.536;12.688;2023-04-25T08:22:28;14.20;99.90
22153;DHT22;11242;50.536;12.688;2023-04-25T08:25:10;14.10;99.90
22153;DHT22;11242;50.536;12.688;2023-04-25T08:27:35;12.60;99.90
22153;DHT22;11242;50.536;12.688;2023-04-25T08:30:03;11.40;99.90
22153;DHT22;11242;50.536;12.688;2023-04-25T08:32:30;10.40;99.90
22153;DHT22;11242;50.536;12.688;2023-04-25T08:35:09;9.70;99.90
22153;DHT22;11242;50.536;12.688;2023-04-25T08:37:35;9.10;99.90
22153;DHT22;11242;50.536;12.688;2023-04-25T08:40:13;8.80;99.90
22153;DHT22;11242;50.536;12.688;2023-04-25T08:42:53;8.60;99.90
22153;DHT22;11242;50.536;12.688;2023-04-25T08:45:20;8.50;99.90
22153;DHT22;11242;50.536;12.688;2023-04-25T08:47:46;8.30;99.90
22153;DHT22;11242;50.536;12.688;2023-04-25T08:50:14;8.10;99.90
22153;DHT22;11242;50.536;12.688;2023-04-25T08:52:44;7.90;99.90
22153;DHT22;11242;50.536;12.688;2023-04-25T08:55:12;7.90;99.90
22153;DHT22;11242;50.536;12.688;2023-04-25T08:57:41;7.60;99.90
22153;DHT22;11242;50.536;12.688;2023-04-25T09:00:09;7.50;99.90
22153;DHT22;11242;50.536;12.688;2023-04-25T09:02:38;7.60;99.90
22153;DHT22;11242;50.536;12.688;2023-04-25T09:05:05;7.60;99.90
22153;DHT22;11242;50.536;12.688;2023-04-25T09:07:32;7.60;99.90
22153;DHT22;11242;50.536;12.688;2023-04-25T09:09:58;7.80;99.90
22153;DHT22;11242;50.536;12.688;2023-04-25T09:12:27;8.30;99.90
22153;DHT22;11242;50.536;12.688;2023-04-25T09:15:08;8.80;99.90
22153;DHT22;11242;50.536;12.688;2023-04-25T09:17:58;9.30;99.90
22153;DHT22;11242;50.536;12.688;2023-04-25T09:20:28;10.00;99.90
22153;DHT22;11242;50.536;12.688;2023-04-25T09:23:05;11.00;99.90
22153;DHT22;11242;50.536;12.688;2023-04-25T09:25:35;10.90;99.90
22153;DHT22;11242;50.536;12.688;2023-04-25T09:28:05;11.10;99.90
22153;DHT22;11242;50.536;12.688;2023-04-25T09:30:33;11.20;99.90
22153;DHT22;11242;50.536;12.688;2023-04-25T09:33:19;11.50;99.90
22153;DHT22;11242;50.536;12.688;2023-04-25T09:35:48;11.10;99.90
22153;DHT22;11242;50.536;12.688;2023-04-25T09:38:26;10.80;99.90
22153;DHT22;11242;50.536;12.688;2023-04-25T09:40:52;10.20;99.90
22153;DHT22;11242;50.536;12.688;2023-04-25T09:43:26;9.80;99.90
22153;DHT22;11242;50.536;12.688;2023-04-25T09:45:54;9.20;99.90
22153;DHT22;11242;50.536;12.688;2023-04-25T09:48:26;9.00;99.90
22153;DHT22;11242;50.536;12.688;2023-04-25T09:51:12;9.00;99.90
22153;DHT22;11242;50.536;12.688;2023-04-25T09:53:45;9.10;99.90
22153;DHT22;11242;50.536;12.688;2023-04-25T09:56:35;9.30;99.90
22153;DHT22;11242;50.536;12.688;2023-04-25T09:59:04;9.20;99.90
22153;DHT22;11242;50.536;12.688;2023-04-25T10:01:32;8.90;99.90
22153;DHT22;11242;50.536;12.688;2023-04-25T10:04:10;8.60;99.90
22153;DHT22;11242;50.536;12.688;2023-04-25T10:06:48;8.40;99.90
22153;DHT22;11242;50.536;12.688;2023-04-25T10:09:16;8.30;99.90
22153;DHT22;11242;50.536;12.688;2023-04-25T10:11:45;8.20;99.90
22153;DHT22;11242;50.536;12.688;2023-04-25T10:14:13;8.10;99.90
22153;DHT22;11242;50.536;12.688;2023-04-25T10:16:40;8.20;99.90
22153;DHT22;11242;50.536;12.688;2023-04-25T10:19:07;8.30;99.90
22153;DHT22;11242;50.536;12.688;2023-04-25T10:21:33;8.30;99.90
22153;DHT22;11242;50.536;12.688;2023-04-25T10:24:00;8.40;99.90
22153;DHT22;11242;50.536;12.688;2023-04-25T10:26:26;8.50;99.90
22153;DHT22;11242;50.536;12.688;2023-04-25T10:28:59;8.50;99.90
22153;DHT22;11242;50.536;12.688;2023-04-25T10:31:26;8.60;99.90
22153;DHT22;11242;50.536;12.688;2023-04-25T10:33:53;8.60;99.90
22153;DHT22;11242;50.536;12.688;2023-04-25T10:36:20;8.50;99.90
22153;DHT22;11242;50.536;12.688;2023-04-25T10:38:50;8.40;99.90
22153;DHT22;11242;50.536;12.688;2023-04-25T10:41:18;8.40;99.90
22153;DHT22;11242;50.536;12.688;2023-04-25T10:43:48;8.30;99.90
22153;DHT22;11242;50.536;12.688;2023-04-25T10:46:19;8.30;99.90
22153;DHT22;11242;50.536;12.688;2023-04-25T10:48:55;8.10;99.90
22153;DHT22;11242;50.536;12.688;2023-04-25T10:51:28;7.80;99.90
22153;DHT22;11242;50.536;12.688;2023-04-25T10:54:05;7.40;99.90
22153;DHT22;11242;50.536;12.688;2023-04-25T10:56:32;7.40;99.90
22153;DHT22;11242;50.536;12.688;2023-04-25T10:59:18;7.40;99.90
22153;DHT22;11242;50.536;12.688;2023-04-25T11:01:51;7.60;99.90
22153;DHT22;11242;50.536;12.688;2023-04-25T11:04:33;7.80;99.90
22153;DHT22;11242;50.536;12.688;2023-04-25T11:07:10;8.00;99.90
22153;DHT22;11242;50.536;12.688;2023-04-25T11:09:40;8.10;99.90
22153;DHT22;11242;50.536;12.688;2023-04-25T11:12:08;7.90;99.90
22153;DHT22;11242;50.536;12.688;2023-04-25T11:14:35;7.80;99.90
22153;DHT22;11242;50.536;12.688;2023-04-25T11:17:00;7.60;99.90
22153;DHT22;11242;50.536;12.688;2023-04-25T11:19:28;7.90;99.90
22153;DHT22;11242;50.536;12.688;2023-04-25T11:21:58;8.30;99.90
22153;DHT22;11242;50.536;12.688;2023-04-25T11:24:28;8.30;99.90
22153;DHT22;11242;50.536;12.688;2023-04-25T11:26:54;8.00;99.90
22153;DHT22;11242;50.536;12.688;2023-04-25T11:29:22;8.00;99.90
22153;DHT22;11242;50.536;12.688;2023-04-25T11:31:48;8.10;99.90
22153;DHT22;11242;50.536;12.688;2023-04-25T11:34:18;8.30;99.90
22153;DHT22;11242;50.536;12.688;2023-04-25T11:36:45;8.70;99.90
22153;DHT22;11242;50.536;12.688;2023-04-25T11:39:11;8.90;99.90
22153;DHT22;11242;50.536;12.688;2023-04-25T11:41:39;9.20;99.90
22153;DHT22;11242;50.536;12.688;2023-04-25T11:44:06;9.30;99.90
22153;DHT22;11242;50.536;12.688;2023-04-25T11:46:34;9.50;99.90
22153;DHT22;11242;50.536;12.688;2023-04-25T11:49:00;9.70;99.90
22153;DHT22;11242;50.536;12.688;2023-04-25T11:51:26;9.60;99.90
22153;DHT22;11242;50.536;12.688;2023-04-25T11:53:52;9.20;99.90
22153;DHT22;11242;50.536;12.688;2023-04-25T11:56:18;8.90;99.90
22153;DHT22;11242;50.536;12.688;2023-04-25T11:59:03;8.70;99.90
22153;DHT22;11242;50.536;12.688;2023-04-25T12:01:31;8.50;99.90
22153;DHT22;11242;50.536;12.688;2023-04-25T12:03:57;8.40;99.90
22153;DHT22;11242;50.536;12.688;2023-04-25T12:06:29;8.40;99.90
22153;DHT22;11242;50.536;12.688;2023-04-25T12:09:02;8.60;99.90
22153;DHT22;11242;50.536;12.688;2023-04-25T12:11:30;8.70;99.90
22153;DHT22;11242;50.536;12.688;2023-04-25T12:14:04;8.60;99.90
22153;DHT22;11242;50.536;12.688;2023-04-25T12:16:46;8.80;99.90
22153;DHT22;11242;50.536;12.688;2023-04-25T12:19:16;9.10;99.90
22153;DHT22;11242;50.536;12.688;2023-04-25T12:21:42;9.50;99.90
22153;DHT22;11242;50.536;12.688;2023-04-25T12:24:27;9.70;99.90
22153;DHT22;11242;50.536;12.688;2023-04-25T12:27:00;9.40;99.90
22153;DHT22;11242;50.536;12.688;2023-04-25T12:29:28;9.30;99.90
22153;DHT22;11242;50.536;12.688;2023-04-25T12:31:55;9.20;99.90
22153;DHT22;11242;50.536;12.688;2023-04-25T12:34:22;8.90;99.90
22153;DHT22;11242;50.536;12.688;2023-04-25T12:36:49;8.60;99.90
22153;DHT22;11242;50.536;12.688;2023-04-25T12:39:19;8.40;99.90
22153;DHT22;11242;50.536;12.688;2023-04-25T12:41:46;8.00;99.90
22153;DHT22;11242;50.536;12.688;2023-04-25T12:44:12;7.70;99.90
22153;DHT22;11242;50.536;12.688;2023-04-25T12:46:38;7.60;99.90
22153;DHT22;11242;50.536;12.688;2023-04-25T12:49:04;7.50;99.90
22153;DHT22;11242;50.536;12.688;2023-04-25T12:51:30;7.40;99.90
22153;DHT22;11242;50.536;12.688;2023-04-25T12:53:58;7.20;99.90
22153;DHT22;11242;50.536;12.688;2023-04-25T12:56:24;7.30;99.90
22153;DHT22;11242;50.536;12.688;2023-04-25T12:58:50;7.20;99.90
22153;DHT22;11242;50.536;12.688;2023-04-25T13:01:15;7.10;99.90
22153;DHT22;11242;50.536;12.688;2023-04-25T13:03:41;7.00;99.90
22153;DHT22;11242;50.536;12.688;2023-04-25T13:06:06;7.00;99.90
22153;DHT22;11242;50.536;12.688;2023-04-25T13:08:32;7.10;99.90
22153;DHT22;11242;50.536;12.688;2023-04-25T13:10:58;7.30;99.90
22153;DHT22;11242;50.536;12.688;2023-04-25T13:13:24;7.60;99.90
22153;DHT22;11242;50.536;12.688;2023-04-25T13:15:49;8.00;99.90
22153;DHT22;11242;50.536;12.688;2023-04-25T13:18:15;8.30;99.90
22153;DHT22;11242;50.536;12.688;2023-04-25T13:20:41;8.40;99.90
22153;DHT22;11242;50.536;12.688;2023-04-25T13:23:06;8.10;99.90
22153;DHT22;11242;50.536;12.688;2023-04-25T13:25:32;7.70;99.90
22153;DHT22;11242;50.536;12.688;2023-04-25T13:27:58;7.40;99.90
22153;DHT22;11242;50.536;12.688;2023-04-25T13:30:23;6.90;99.90
22153;DHT22;11242;50.536;12.688;2023-04-25T13:32:49;6.60;99.90
22153;DHT22;11242;50.536;12.688;2023-04-25T13:35:14;6.40;99.90
22153;DHT22;11242;50.536;12.688;2023-04-25T13:37:43;6.60;99.90
22153;DHT22;11242;50.536;12.688;2023-04-25T13:40:10;6.80;99.90
22153;DHT22;11242;50.536;12.688;2023-04-25T13:42:37;6.90;99.90
22153;DHT22;11242;50.536;12.688;2023-04-25T13:45:03;6.90;99.90
22153;DHT22;11242;50.536;12.688;2023-04-25T13:47:29;6.80;99.90
22153;DHT22;11242;50.536;12.688;2023-04-25T13:49:55;6.70;99.90
22153;DHT22;11242;50.536;12.688;2023-04-25T13:52:21;6.60;99.90
22153;DHT22;11242;50.536;12.688;2023-04-25T13:54:49;6.40;99.90
22153;DHT22;11242;50.536;12.688;2023-04-25T13:57:16;6.40;99.90
22153;DHT22;11242;50.536;12.688;2023-04-25T13:59:41;6.40;99.90
22153;DHT22;11242;50.536;12.688;2023-04-25T14:02:07;6.50;99.90
22153;DHT22;11242;50.536;12.688;2023-04-25T14:04:33;6.40;99.90
22153;DHT22;11242;50.536;12.688;2023-04-25T14:06:58;6.40;99.90
22153;DHT22;11242;50.536;12.688;2023-04-25T14:09:25;6.40;99.90
22153;DHT22;11242;50.536;12.688;2023-04-25T14:11:52;6.60;99.90
22153;DHT22;11242;50.536;12.688;2023-04-25T14:14:18;6.80;99.90
22153;DHT22;11242;50.536;12.688;2023-04-25T14:16:44;7.20;99.90
22153;DHT22;11242;50.536;12.688;2023-04-25T14:19:10;7.50;99.90
22153;DHT22;11242;50.536;12.688;2023-04-25T14:21:35;7.80;99.90
22153;DHT22;11242;50.536;12.688;2023-04-25T14:24:01;8.20;99.90
22153;DHT22;11242;50.536;12.688;2023-04-25T14:26:26;8.20;99.90
22153;DHT22;11242;50.536;12.688;2023-04-25T14:28:52;8.10;99.90
22153;DHT22;11242;50.536;12.688;2023-04-25T14:31:18;8.00;99.90
22153;DHT22;11242;50.536;12.688;2023-04-25T14:33:43;8.20;99.90
22153;DHT22;11242;50.536;12.688;2023-04-25T14:36:09;8.60;99.90
22153;DHT22;11242;50.536;12.688;2023-04-25T14:38:35;8.80;99.90
22153;DHT22;11242;50.536;12.688;2023-04-25T14:41:01;8.90;99.90
22153;DHT22;11242;50.536;12.688;2023-04-25T14:43:26;9.00;99.90
22153;DHT22;11242;50.536;12.688;2023-04-25T14:45:52;9.20;99.90
22153;DHT22;11242;50.536;12.688;2023-04-25T14:48:18;9.30;99.90
22153;DHT22;11242;50.536;12.688;2023-04-25T14:50:45;8.90;99.90
22153;DHT22;11242;50.536;12.688;2023-04-25T14:53:11;8.90;99.90
22153;DHT22;11242;50.536;12.688;2023-04-25T14:55:37;8.70;99.90
22153;DHT22;11242;50.536;12.688;2023-04-25T14:58:03;8.50;99.90
22153;DHT22;11242;50.536;12.688;2023-04-25T15:00:28;8.10;99.90
22153;DHT22;11242;50.536;12.688;2023-04-25T15:02:56;7.90;99.90
22153;DHT22;11242;50.536;12.688;2023-04-25T15:05:22;7.70;99.90
22153;DHT22;11242;50.536;12.688;2023-04-25T15:07:47;7.50;99.90
22153;DHT22;11242;50.536;12.688;2023-04-25T15:10:13;7.20;99.90
22153;DHT22;11242;50.536;12.688;2023-04-25T15:12:42;7.00;99.90
22153;DHT22;11242;50.536;12.688;2023-04-25T15:15:08;6.80;99.90
22153;DHT22;11242;50.536;12.688;2023-04-25T15:17:41;6.80;99.90
22153;DHT22;11242;50.536;12.688;2023-04-25T15:20:08;6.90;99.90
22153;DHT22;11242;50.536;12.688;2023-04-25T15:22:41;7.00;99.90
22153;DHT22;11242;50.536;12.688;2023-04-25T15:25:08;7.10;99.90
22153;DHT22;11242;50.536;12.688;2023-04-25T15:27:34;7.20;99.90
22153;DHT22;11242;50.536;12.688;2023-04-25T15:30:08;7.40;99.90
22153;DHT22;11242;50.536;12.688;2023-04-25T15:32:34;7.50;99.90
22153;DHT22;11242;50.536;12.688;2023-04-25T15:35:04;7.40;99.90
22153;DHT22;11242;50.536;12.688;2023-04-25T15:37:30;7.30;99.90
22153;DHT22;11242;50.536;12.688;2023-04-25T15:40:07;7.30;99.90
22153;DHT22;11242;50.536;12.688;2023-04-25T15:42:42;7.30;99.90